Terminal Aerodrome Forecast
Issued by NWS

Home | Current Version | Previous Version | Text Only | Print | Product List | Glossary On
Versions: 1 2 3 4 5 6 7 8 9 10 11 12
000
FTAK31 PAFA 272321
TAFATA
TAF
PATA 272321Z 2800/2824 12009KT P6SM FEW070 SCT110
     FM280300 09008KT P6SM FEW050 BKN100 BKN200
     FM280600 06008KT P6SM SCT035 BKN050 OVC100
     FM280900 06006KT 6SM -SN BR SCT025 BKN035 OVC050=

USA.gov is the U.S. government's official web portal to all federal, state and local government web resources and services.